sensor_id;sensor_type;location;lat;lon;timestamp;pressure;altitude;pressure_sealevel;temperature;humidity
79453;BME280;68899;52.116;5.404;2024-02-15T00:00:16;101695.53;;;11.29;96.59
79453;BME280;68899;52.116;5.404;2024-02-15T00:02:44;101693.81;;;11.28;96.58
79453;BME280;68899;52.116;5.404;2024-02-15T00:05:12;101689.47;;;11.27;96.59
79453;BME280;68899;52.116;5.404;2024-02-15T00:07:38;101688.72;;;11.25;96.36
79453;BME280;68899;52.116;5.404;2024-02-15T00:10:06;101693.03;;;11.26;96.78
79453;BME280;68899;52.116;5.404;2024-02-15T00:12:34;101685.13;;;11.26;96.73
79453;BME280;68899;52.116;5.404;2024-02-15T00:15:01;101687.78;;;11.26;96.38
79453;BME280;68899;52.116;5.404;2024-02-15T00:17:28;101685.31;;;11.23;96.34
79453;BME280;68899;52.116;5.404;2024-02-15T00:19:59;101686.25;;;11.22;96.40
79453;BME280;68899;52.116;5.404;2024-02-15T00:22:26;101683.59;;;11.22;96.46
79453;BME280;68899;52.116;5.404;2024-02-15T00:24:52;101687.00;;;11.24;96.50
79453;BME280;68899;52.116;5.404;2024-02-15T00:27:19;101687.94;;;11.23;96.10
79453;BME280;68899;52.116;5.404;2024-02-15T00:29:47;101687.94;;;11.23;96.60
79453;BME280;68899;52.116;5.404;2024-02-15T00:32:14;101691.50;;;11.22;96.53
79453;BME280;68899;52.116;5.404;2024-02-15T00:34:41;101693.22;;;11.23;96.42
79453;BME280;68899;52.116;5.404;2024-02-15T00:37:08;101685.31;;;11.23;96.46
79453;BME280;68899;52.116;5.404;2024-02-15T00:39:35;101685.22;;;11.25;96.58
79453;BME280;68899;52.116;5.404;2024-02-15T00:42:03;101690.41;;;11.26;96.42
79453;BME280;68899;52.116;5.404;2024-02-15T00:44:33;101682.50;;;11.26;96.42
79453;BME280;68899;52.116;5.404;2024-02-15T00:46:59;101688.63;;;11.27;96.09
79453;BME280;68899;52.116;5.404;2024-02-15T00:49:26;101676.47;;;11.24;96.06
79453;BME280;68899;52.116;5.404;2024-02-15T00:51:54;101680.81;;;11.25;96.37
79453;BME280;68899;52.116;5.404;2024-02-15T00:54:20;101677.31;;;11.25;96.20
79453;BME280;68899;52.116;5.404;2024-02-15T00:56:49;101673.75;;;11.26;96.25
79453;BME280;68899;52.116;5.404;2024-02-15T00:59:16;101671.13;;;11.26;96.41
79453;BME280;68899;52.116;5.404;2024-02-15T01:01:44;101671.13;;;11.26;96.33
79453;BME280;68899;52.116;5.404;2024-02-15T01:04:12;101671.13;;;11.26;96.37
79453;BME280;68899;52.116;5.404;2024-02-15T01:06:39;101670.28;;;11.25;96.24
79453;BME280;68899;52.116;5.404;2024-02-15T01:09:07;101676.38;;;11.26;96.24
79453;BME280;68899;52.116;5.404;2024-02-15T01:11:35;101679.88;;;11.26;96.25
79453;BME280;68899;52.116;5.404;2024-02-15T01:14:03;101673.66;;;11.27;96.23
79453;BME280;68899;52.116;5.404;2024-02-15T01:16:29;101677.22;;;11.26;96.31
79453;BME280;68899;52.116;5.404;2024-02-15T01:18:56;101672.81;;;11.27;96.54
79453;BME280;68899;52.116;5.404;2024-02-15T01:21:22;101679.88;;;11.26;95.98
79453;BME280;68899;52.116;5.404;2024-02-15T01:23:49;101671.13;;;11.26;96.02
79453;BME280;68899;52.116;5.404;2024-02-15T01:26:16;101665.09;;;11.24;96.34
79453;BME280;68899;52.116;5.404;2024-02-15T01:28:42;101657.19;;;11.24;96.21
79453;BME280;68899;52.116;5.404;2024-02-15T01:31:10;101658.88;;;11.25;96.07
79453;BME280;68899;52.116;5.404;2024-02-15T01:33:37;101657.09;;;11.25;96.24
79453;BME280;68899;52.116;5.404;2024-02-15T01:36:04;101653.44;;;11.28;96.16
79453;BME280;68899;52.116;5.404;2024-02-15T01:38:32;101658.72;;;11.28;95.93
79453;BME280;68899;52.116;5.404;2024-02-15T01:40:58;101661.44;;;11.26;96.16
79453;BME280;68899;52.116;5.404;2024-02-15T01:43:25;101666.78;;;11.25;96.23
79453;BME280;68899;52.116;5.404;2024-02-15T01:45:51;101660.59;;;11.26;96.06
79453;BME280;68899;52.116;5.404;2024-02-15T01:48:18;101658.88;;;11.25;95.92
79453;BME280;68899;52.116;5.404;2024-02-15T01:50:45;101654.56;;;11.24;96.10
79453;BME280;68899;52.116;5.404;2024-02-15T01:53:12;101665.00;;;11.25;96.66
79453;BME280;68899;52.116;5.404;2024-02-15T01:55:39;101662.44;;;11.24;96.07
79453;BME280;68899;52.116;5.404;2024-02-15T01:58:06;101662.44;;;11.24;96.25
79453;BME280;68899;52.116;5.404;2024-02-15T02:00:34;101654.47;;;11.25;96.24
79453;BME280;68899;52.116;5.404;2024-02-15T02:03:04;101656.25;;;11.25;96.03
79453;BME280;68899;52.116;5.404;2024-02-15T02:05:31;101640.44;;;11.25;95.84
79453;BME280;68899;52.116;5.404;2024-02-15T02:07:58;101641.22;;;11.27;96.14
79453;BME280;68899;52.116;5.404;2024-02-15T02:10:27;101643.09;;;11.25;96.15
79453;BME280;68899;52.116;5.404;2024-02-15T02:13:01;101641.28;;;11.25;96.24
79453;BME280;68899;52.116;5.404;2024-02-15T02:15:31;101644.78;;;11.26;96.18
79453;BME280;68899;52.116;5.404;2024-02-15T02:18:01;101634.16;;;11.27;96.12
79453;BME280;68899;52.116;5.404;2024-02-15T02:20:27;101632.47;;;11.26;95.93
79453;BME280;68899;52.116;5.404;2024-02-15T02:23:15;101628.97;;;11.26;96.16
79453;BME280;68899;52.116;5.404;2024-02-15T02:25:42;101627.28;;;11.25;96.15
79453;BME280;68899;52.116;5.404;2024-02-15T02:28:10;101627.38;;;11.23;96.27
79453;BME280;68899;52.116;5.404;2024-02-15T02:30:36;101628.28;;;11.22;95.95
79453;BME280;68899;52.116;5.404;2024-02-15T02:33:03;101633.47;;;11.24;96.37
79453;BME280;68899;52.116;5.404;2024-02-15T02:35:33;101621.34;;;11.21;95.97
79453;BME280;68899;52.116;5.404;2024-02-15T02:38:01;101611.78;;;11.19;95.98
79453;BME280;68899;52.116;5.404;2024-02-15T02:40:28;101622.22;;;11.20;96.03
79453;BME280;68899;52.116;5.404;2024-02-15T02:42:56;101611.78;;;11.19;95.86
79453;BME280;68899;52.116;5.404;2024-02-15T02:45:25;101622.47;;;11.16;95.85
79453;BME280;68899;52.116;5.404;2024-02-15T02:47:52;101625.19;;;11.14;95.68
79453;BME280;68899;52.116;5.404;2024-02-15T02:50:21;101626.91;;;11.15;95.91
79453;BME280;68899;52.116;5.404;2024-02-15T02:52:47;101626.91;;;11.15;95.73
79453;BME280;68899;52.116;5.404;2024-02-15T02:55:15;101620.88;;;11.13;95.89
79453;BME280;68899;52.116;5.404;2024-02-15T02:57:42;101613.97;;;11.11;95.88
79453;BME280;68899;52.116;5.404;2024-02-15T03:00:17;101625.28;;;11.13;95.87
79453;BME280;68899;52.116;5.404;2024-02-15T03:02:45;101621.84;;;11.11;95.82
79453;BME280;68899;52.116;5.404;2024-02-15T03:05:12;101620.06;;;11.11;95.85
79453;BME280;68899;52.116;5.404;2024-02-15T03:07:40;101621.00;;;11.10;95.83
79453;BME280;68899;52.116;5.404;2024-02-15T03:10:08;101615.66;;;11.12;95.85
79453;BME280;68899;52.116;5.404;2024-02-15T03:12:38;101622.72;;;11.11;96.07
79453;BME280;68899;52.116;5.404;2024-02-15T03:15:06;101616.59;;;11.11;95.95
79453;BME280;68899;52.116;5.404;2024-02-15T03:17:42;101618.28;;;11.12;95.97
79453;BME280;68899;52.116;5.404;2024-02-15T03:20:10;101611.19;;;11.14;95.84
79453;BME280;68899;52.116;5.404;2024-02-15T03:22:39;101614.75;;;11.13;95.51
79453;BME280;68899;52.116;5.404;2024-02-15T03:25:06;101613.09;;;11.10;95.93
79453;BME280;68899;52.116;5.404;2024-02-15T03:27:36;101610.47;;;11.10;95.88
79453;BME280;68899;52.116;5.404;2024-02-15T03:30:06;101609.53;;;11.11;95.90
79453;BME280;68899;52.116;5.404;2024-02-15T03:32:33;101601.81;;;11.08;95.78
79453;BME280;68899;52.116;5.404;2024-02-15T03:35:00;101605.28;;;11.09;95.90
79453;BME280;68899;52.116;5.404;2024-02-15T03:37:27;101600.88;;;11.09;95.83
79453;BME280;68899;52.116;5.404;2024-02-15T03:39:54;101603.59;;;11.08;95.80
79453;BME280;68899;52.116;5.404;2024-02-15T03:42:20;101599.19;;;11.08;95.94
79453;BME280;68899;52.116;5.404;2024-02-15T03:44:47;101603.69;;;11.06;95.86
79453;BME280;68899;52.116;5.404;2024-02-15T03:47:14;101605.47;;;11.06;95.68
79453;BME280;68899;52.116;5.404;2024-02-15T03:49:41;101602.75;;;11.07;95.63
79453;BME280;68899;52.116;5.404;2024-02-15T03:52:08;101594.00;;;11.07;95.54
79453;BME280;68899;52.116;5.404;2024-02-15T03:54:38;101605.28;;;11.09;95.53
79453;BME280;68899;52.116;5.404;2024-02-15T03:57:04;101600.97;;;11.08;95.71
79453;BME280;68899;52.116;5.404;2024-02-15T03:59:33;101603.59;;;11.08;95.56
79453;BME280;68899;52.116;5.404;2024-02-15T04:02:02;101596.72;;;11.05;95.38
79453;BME280;68899;52.116;5.404;2024-02-15T04:04:29;101590.72;;;11.01;95.42
79453;BME280;68899;52.116;5.404;2024-02-15T04:06:57;101592.44;;;11.02;95.61
79453;BME280;68899;52.116;5.404;2024-02-15T04:09:24;101588.00;;;11.03;95.58
79453;BME280;68899;52.116;5.404;2024-02-15T04:11:51;101597.69;;;11.02;95.54
79453;BME280;68899;52.116;5.404;2024-02-15T04:14:20;101591.59;;;11.02;95.59
79453;BME280;68899;52.116;5.404;2024-02-15T04:16:46;101594.16;;;11.03;95.69
79453;BME280;68899;52.116;5.404;2024-02-15T04:19:13;101596.78;;;11.03;95.60
79453;BME280;68899;52.116;5.404;2024-02-15T04:21:40;101600.19;;;11.06;95.51
79453;BME280;68899;52.116;5.404;2024-02-15T04:24:06;101597.56;;;11.06;95.63
79453;BME280;68899;52.116;5.404;2024-02-15T04:26:33;101592.22;;;11.07;95.62
79453;BME280;68899;52.116;5.404;2024-02-15T04:29:00;101586.84;;;11.09;95.63
79453;BME280;68899;52.116;5.404;2024-02-15T04:31:26;101583.47;;;11.07;95.70
79453;BME280;68899;52.116;5.404;2024-02-15T04:33:53;101592.97;;;11.09;95.68
79453;BME280;68899;52.116;5.404;2024-02-15T04:36:21;101592.03;;;11.10;95.76
79453;BME280;68899;52.116;5.404;2024-02-15T04:38:52;101584.13;;;11.10;95.90
79453;BME280;68899;52.116;5.404;2024-02-15T04:41:19;101586.69;;;11.12;95.86
79453;BME280;68899;52.116;5.404;2024-02-15T04:43:46;101588.47;;;11.11;95.83
79453;BME280;68899;52.116;5.404;2024-02-15T04:46:13;101583.19;;;11.11;95.65
79453;BME280;68899;52.116;5.404;2024-02-15T04:48:41;101582.31;;;11.12;95.88
79453;BME280;68899;52.116;5.404;2024-02-15T04:51:10;101579.59;;;11.14;95.82
79453;BME280;68899;52.116;5.404;2024-02-15T04:53:37;101576.94;;;11.14;95.89
79453;BME280;68899;52.116;5.404;2024-02-15T04:56:06;101575.09;;;11.16;95.95
79453;BME280;68899;52.116;5.404;2024-02-15T04:58:40;101582.13;;;11.15;96.11
79453;BME280;68899;52.116;5.404;2024-02-15T05:01:17;101567.19;;;11.16;95.92
79453;BME280;68899;52.116;5.404;2024-02-15T05:03:44;101563.69;;;11.15;95.84
79453;BME280;68899;52.116;5.404;2024-02-15T05:06:11;101558.44;;;11.15;95.96
79453;BME280;68899;52.116;5.404;2024-02-15T05:08:39;101560.13;;;11.16;96.07
79453;BME280;68899;52.116;5.404;2024-02-15T05:11:10;101560.13;;;11.16;95.90
79453;BME280;68899;52.116;5.404;2024-02-15T05:13:45;101568.03;;;11.16;95.86
79453;BME280;68899;52.116;5.404;2024-02-15T05:16:12;101563.69;;;11.15;95.93
79453;BME280;68899;52.116;5.404;2024-02-15T05:18:39;101567.19;;;11.16;96.06
79453;BME280;68899;52.116;5.404;2024-02-15T05:21:08;101573.31;;;11.16;95.90
79453;BME280;68899;52.116;5.404;2024-02-15T05:23:38;101574.16;;;11.17;96.13
79453;BME280;68899;52.116;5.404;2024-02-15T05:26:09;101573.31;;;11.16;96.10
79453;BME280;68899;52.116;5.404;2024-02-15T05:28:35;101572.44;;;11.16;96.25
79453;BME280;68899;52.116;5.404;2024-02-15T05:33:44;101565.41;;;11.16;96.26
79453;BME280;68899;52.116;5.404;2024-02-15T05:36:11;101572.38;;;11.17;96.38
79453;BME280;68899;52.116;5.404;2024-02-15T05:38:39;101563.63;;;11.17;96.38
79453;BME280;68899;52.116;5.404;2024-02-15T05:41:07;101545.94;;;11.19;96.43
79453;BME280;68899;52.116;5.404;2024-02-15T05:43:34;101535.50;;;11.17;96.34
79453;BME280;68899;52.116;5.404;2024-02-15T05:46:04;101513.50;;;11.18;96.36
79453;BME280;68899;52.116;5.404;2024-02-15T05:48:30;101492.41;;;11.18;96.48
79453;BME280;68899;52.116;5.404;2024-02-15T05:50:57;101475.78;;;11.18;96.37
79453;BME280;68899;52.116;5.404;2024-02-15T05:53:25;101488.94;;;11.18;96.47
79453;BME280;68899;52.116;5.404;2024-02-15T05:55:52;101509.16;;;11.17;96.62
79453;BME280;68899;52.116;5.404;2024-02-15T05:58:18;101510.09;;;11.16;96.69
79453;BME280;68899;52.116;5.404;2024-02-15T06:00:45;101508.22;;;11.18;96.52
79453;BME280;68899;52.116;5.404;2024-02-15T06:03:12;101511.63;;;11.20;96.51
79453;BME280;68899;52.116;5.404;2024-02-15T06:05:39;101499.38;;;11.19;96.66
79453;BME280;68899;52.116;5.404;2024-02-15T06:08:07;101509.06;;;11.19;96.69
79453;BME280;68899;52.116;5.404;2024-02-15T06:10:33;101512.56;;;11.19;96.56
79453;BME280;68899;52.116;5.404;2024-02-15T06:13:00;101515.19;;;11.19;96.57
79453;BME280;68899;52.116;5.404;2024-02-15T06:15:26;101508.06;;;11.21;96.62
79453;BME280;68899;52.116;5.404;2024-02-15T06:17:53;101500.22;;;11.20;96.66
79453;BME280;68899;52.116;5.404;2024-02-15T06:20:20;101509.88;;;11.21;96.70
79453;BME280;68899;52.116;5.404;2024-02-15T06:22:47;101510.75;;;11.20;96.76
79453;BME280;68899;52.116;5.404;2024-02-15T06:25:14;101517.75;;;11.21;96.61
79453;BME280;68899;52.116;5.404;2024-02-15T06:27:48;101524.78;;;11.20;96.61
79453;BME280;68899;52.116;5.404;2024-02-15T06:30:17;101528.31;;;11.21;96.88
79453;BME280;68899;52.116;5.404;2024-02-15T06:33:03;101520.41;;;11.21;96.76
79453;BME280;68899;52.116;5.404;2024-02-15T06:35:48;101522.09;;;11.22;96.87
79453;BME280;68899;52.116;5.404;2024-02-15T06:38:33;101522.94;;;11.22;96.68
79453;BME280;68899;52.116;5.404;2024-02-15T06:41:18;101522.09;;;11.22;96.61
79453;BME280;68899;52.116;5.404;2024-02-15T06:43:47;101519.47;;;11.22;96.83
79453;BME280;68899;52.116;5.404;2024-02-15T06:46:14;101515.88;;;11.23;96.56
79453;BME280;68899;52.116;5.404;2024-02-15T06:48:44;101506.28;;;11.22;96.73
79453;BME280;68899;52.116;5.404;2024-02-15T06:51:14;101497.53;;;11.21;96.68
79453;BME280;68899;52.116;5.404;2024-02-15T06:53:42;101498.41;;;11.22;96.62
79453;BME280;68899;52.116;5.404;2024-02-15T06:56:09;101501.88;;;11.22;96.70
79453;BME280;68899;52.116;5.404;2024-02-15T06:58:39;101495.75;;;11.22;96.78
79453;BME280;68899;52.116;5.404;2024-02-15T07:01:07;101491.34;;;11.22;96.73
79453;BME280;68899;52.116;5.404;2024-02-15T07:03:34;101499.25;;;11.22;96.70
79453;BME280;68899;52.116;5.404;2024-02-15T07:06:02;101504.50;;;11.22;96.80
79453;BME280;68899;52.116;5.404;2024-02-15T07:08:31;101507.13;;;11.22;96.76
79453;BME280;68899;52.116;5.404;2024-02-15T07:10:58;101509.69;;;11.24;96.49
79453;BME280;68899;52.116;5.404;2024-02-15T07:13:25;101510.44;;;11.26;96.89
79453;BME280;68899;52.116;5.404;2024-02-15T07:15:53;101524.47;;;11.26;96.84
79453;BME280;68899;52.116;5.404;2024-02-15T07:18:19;101520.13;;;11.25;96.92
79453;BME280;68899;52.116;5.404;2024-02-15T07:20:54;101526.16;;;11.27;96.75
79453;BME280;68899;52.116;5.404;2024-02-15T07:23:23;101512.16;;;11.27;96.56
79453;BME280;68899;52.116;5.404;2024-02-15T07:25:50;101503.31;;;11.28;96.60
79453;BME280;68899;52.116;5.404;2024-02-15T07:28:20;101522.59;;;11.28;96.57
79453;BME280;68899;52.116;5.404;2024-02-15T07:30:47;101522.53;;;11.30;96.70
79453;BME280;68899;52.116;5.404;2024-02-15T07:33:17;101537.50;;;11.29;96.53
79453;BME280;68899;52.116;5.404;2024-02-15T07:35:44;101550.56;;;11.31;96.46
79453;BME280;68899;52.116;5.404;2024-02-15T07:38:12;101562.91;;;11.30;96.60
79453;BME280;68899;52.116;5.404;2024-02-15T07:40:38;101555.84;;;11.31;96.61
79453;BME280;68899;52.116;5.404;2024-02-15T07:43:06;101563.75;;;11.31;96.65
79453;BME280;68899;52.116;5.404;2024-02-15T07:45:33;101541.81;;;11.30;96.25
79453;BME280;68899;52.116;5.404;2024-02-15T07:48:04;101512.91;;;11.29;96.59
79453;BME280;68899;52.116;5.404;2024-02-15T07:50:31;101551.56;;;11.28;96.85
79453;BME280;68899;52.116;5.404;2024-02-15T07:52:58;101539.19;;;11.30;96.95
79453;BME280;68899;52.116;5.404;2024-02-15T07:55:25;101535.63;;;11.31;96.82
79453;BME280;68899;52.116;5.404;2024-02-15T07:57:51;101536.47;;;11.32;96.75
79453;BME280;68899;52.116;5.404;2024-02-15T08:00:19;101547.78;;;11.34;96.69
79453;BME280;68899;52.116;5.404;2024-02-15T08:02:46;101556.53;;;11.35;96.58
79453;BME280;68899;52.116;5.404;2024-02-15T08:05:13;101557.38;;;11.35;96.83
79453;BME280;68899;52.116;5.404;2024-02-15T08:07:42;101546.84;;;11.35;96.51
79453;BME280;68899;52.116;5.404;2024-02-15T08:10:11;101517.19;;;11.31;96.63
79453;BME280;68899;52.116;5.404;2024-02-15T08:12:45;101508.44;;;11.31;96.59
79453;BME280;68899;52.116;5.404;2024-02-15T08:15:12;101514.63;;;11.30;96.71
79453;BME280;68899;52.116;5.404;2024-02-15T08:17:40;101518.19;;;11.29;96.68
79453;BME280;68899;52.116;5.404;2024-02-15T08:20:09;101520.81;;;11.29;96.88
79453;BME280;68899;52.116;5.404;2024-02-15T08:22:37;101515.53;;;11.29;96.78
79453;BME280;68899;52.116;5.404;2024-02-15T08:25:12;101518.13;;;11.30;97.20
79453;BME280;68899;52.116;5.404;2024-02-15T08:27:40;101508.44;;;11.31;96.96
79453;BME280;68899;52.116;5.404;2024-02-15T08:30:12;101512.75;;;11.32;96.74
79453;BME280;68899;52.116;5.404;2024-02-15T08:32:40;101517.94;;;11.33;96.74
79453;BME280;68899;52.116;5.404;2024-02-15T08:35:09;101522.28;;;11.35;96.86
79453;BME280;68899;52.116;5.404;2024-02-15T08:37:37;101524.81;;;11.36;96.74
79453;BME280;68899;52.116;5.404;2024-02-15T08:40:07;101525.66;;;11.37;96.85
79453;BME280;68899;52.116;5.404;2024-02-15T08:42:40;101519.47;;;11.38;97.02
79453;BME280;68899;52.116;5.404;2024-02-15T08:45:08;101505.38;;;11.39;96.85
79453;BME280;68899;52.116;5.404;2024-02-15T08:47:40;101511.50;;;11.39;96.91
79453;BME280;68899;52.116;5.404;2024-02-15T08:50:10;101493.91;;;11.40;96.94
79453;BME280;68899;52.116;5.404;2024-02-15T08:52:40;101488.56;;;11.41;97.01
79453;BME280;68899;52.116;5.404;2024-02-15T08:55:08;101488.63;;;11.40;97.15
79453;BME280;68899;52.116;5.404;2024-02-15T08:57:41;101490.25;;;11.42;97.15
79453;BME280;68899;52.116;5.404;2024-02-15T09:00:10;101474.44;;;11.42;97.13
79453;BME280;68899;52.116;5.404;2024-02-15T09:02:44;101474.34;;;11.44;97.10
79453;BME280;68899;52.116;5.404;2024-02-15T09:05:11;101474.25;;;11.45;96.97
79453;BME280;68899;52.116;5.404;2024-02-15T09:07:42;101472.47;;;11.46;97.04
79453;BME280;68899;52.116;5.404;2024-02-15T09:10:10;101479.38;;;11.48;96.90
79453;BME280;68899;52.116;5.404;2024-02-15T09:12:37;101491.63;;;11.49;96.99
79453;BME280;68899;52.116;5.404;2024-02-15T09:15:08;101495.00;;;11.51;97.18
79453;BME280;68899;52.116;5.404;2024-02-15T09:17:35;101503.69;;;11.53;96.84
79453;BME280;68899;52.116;5.404;2024-02-15T09:20:10;101495.78;;;11.53;97.05
79453;BME280;68899;52.116;5.404;2024-02-15T09:22:50;101495.78;;;11.53;97.14
79453;BME280;68899;52.116;5.404;2024-02-15T09:25:18;101497.56;;;11.53;97.09
79453;BME280;68899;52.116;5.404;2024-02-15T09:27:45;101496.63;;;11.54;97.00
79453;BME280;68899;52.116;5.404;2024-02-15T09:30:12;101494.06;;;11.52;97.04
79453;BME280;68899;52.116;5.404;2024-02-15T09:32:39;101495.78;;;11.53;96.97
79453;BME280;68899;52.116;5.404;2024-02-15T09:35:07;101487.78;;;11.55;96.88
79453;BME280;68899;52.116;5.404;2024-02-15T09:37:35;101492.13;;;11.56;97.06
79453;BME280;68899;52.116;5.404;2024-02-15T09:40:02;101490.34;;;11.56;96.93
79453;BME280;68899;52.116;5.404;2024-02-15T09:42:33;101498.25;;;11.56;96.94
79453;BME280;68899;52.116;5.404;2024-02-15T09:45:02;101498.16;;;11.58;97.03
79453;BME280;68899;52.116;5.404;2024-02-15T09:47:34;101497.22;;;11.59;96.97
79453;BME280;68899;52.116;5.404;2024-02-15T09:50:04;101496.28;;;11.60;96.82
79453;BME280;68899;52.116;5.404;2024-02-15T09:52:33;101493.56;;;11.61;96.88
79453;BME280;68899;52.116;5.404;2024-02-15T09:55:03;101495.34;;;11.61;96.95
79453;BME280;68899;52.116;5.404;2024-02-15T09:57:30;101502.22;;;11.64;96.82
79453;BME280;68899;52.116;5.404;2024-02-15T10:00:05;101493.41;;;11.65;96.87
79453;BME280;68899;52.116;5.404;2024-02-15T10:02:38;101495.19;;;11.64;96.88
79453;BME280;68899;52.116;5.404;2024-02-15T10:05:06;101490.78;;;11.65;96.76
79453;BME280;68899;52.116;5.404;2024-02-15T10:07:41;101499.44;;;11.67;96.85
79453;BME280;68899;52.116;5.404;2024-02-15T10:10:23;101501.97;;;11.68;96.77
79453;BME280;68899;52.116;5.404;2024-02-15T10:12:53;101500.19;;;11.69;97.17
79453;BME280;68899;52.116;5.404;2024-02-15T10:15:39;101504.44;;;11.71;96.87
79453;BME280;68899;52.116;5.404;2024-02-15T10:18:08;101501.66;;;11.74;96.61
79453;BME280;68899;52.116;5.404;2024-02-15T10:20:40;101506.75;;;11.77;96.73
79453;BME280;68899;52.116;5.404;2024-02-15T10:23:12;101500.47;;;11.80;96.61
79453;BME280;68899;52.116;5.404;2024-02-15T10:25:40;101507.38;;;11.82;96.66
79453;BME280;68899;52.116;5.404;2024-02-15T10:28:11;101495.81;;;11.85;96.67
79453;BME280;68899;52.116;5.404;2024-02-15T10:30:40;101502.97;;;11.83;96.32
79453;BME280;68899;52.116;5.404;2024-02-15T10:33:10;101507.09;;;11.87;96.50
79453;BME280;68899;52.116;5.404;2024-02-15T10:35:37;101500.91;;;11.88;96.57
79453;BME280;68899;52.116;5.404;2024-02-15T10:38:08;101501.75;;;11.88;96.38
79453;BME280;68899;52.116;5.404;2024-02-15T10:40:37;101503.38;;;11.91;96.41
79453;BME280;68899;52.116;5.404;2024-02-15T10:43:04;101499.72;;;11.94;96.53
79453;BME280;68899;52.116;5.404;2024-02-15T10:45:35;101493.41;;;11.96;96.62
79453;BME280;68899;52.116;5.404;2024-02-15T10:48:12;101485.34;;;11.99;96.41
79453;BME280;68899;52.116;5.404;2024-02-15T10:50:40;101486.09;;;12.01;96.35
79453;BME280;68899;52.116;5.404;2024-02-15T10:55:52;101483.19;;;12.06;96.30
79453;BME280;68899;52.116;5.404;2024-02-15T10:58:20;101486.41;;;12.11;96.31
79453;BME280;68899;52.116;5.404;2024-02-15T11:00:49;101480.94;;;12.14;96.24
79453;BME280;68899;52.116;5.404;2024-02-15T11:03:28;101474.66;;;12.16;96.17
79453;BME280;68899;52.116;5.404;2024-02-15T11:06:00;101479.06;;;12.16;96.08
79453;BME280;68899;52.116;5.404;2024-02-15T11:08:27;101477.97;;;12.20;96.17
79453;BME280;68899;52.116;5.404;2024-02-15T11:10:54;101485.59;;;12.25;96.07
79453;BME280;68899;52.116;5.404;2024-02-15T11:13:25;101474.13;;;12.26;96.33
79453;BME280;68899;52.116;5.404;2024-02-15T11:15:51;101478.47;;;12.27;96.08
79453;BME280;68899;52.116;5.404;2024-02-15T11:18:42;101480.31;;;12.25;95.91
79453;BME280;68899;52.116;5.404;2024-02-15T11:21:12;101482.03;;;12.26;96.13
79453;BME280;68899;52.116;5.404;2024-02-15T11:23:39;101476.81;;;12.24;96.01
79453;BME280;68899;52.116;5.404;2024-02-15T11:26:45;101476.66;;;12.27;96.23
79453;BME280;68899;52.116;5.404;2024-02-15T11:29:50;101467.91;;;12.27;95.90
79453;BME280;68899;52.116;5.404;2024-02-15T11:32:38;101467.81;;;12.28;95.77
79453;BME280;68899;52.116;5.404;2024-02-15T11:35:15;101462.63;;;12.27;96.01
79453;BME280;68899;52.116;5.404;2024-02-15T11:40:16;101466.69;;;12.32;96.14
79453;BME280;68899;52.116;5.404;2024-02-15T11:42:46;101461.25;;;12.35;95.92
79453;BME280;68899;52.116;5.404;2024-02-15T11:45:15;101464.72;;;12.36;95.75
79453;BME280;68899;52.116;5.404;2024-02-15T11:47:48;101459.44;;;12.36;95.84
79453;BME280;68899;52.116;5.404;2024-02-15T11:50:21;101467.38;;;12.36;95.76
79453;BME280;68899;52.116;5.404;2024-02-15T11:52:50;101458.50;;;12.37;96.01
79453;BME280;68899;52.116;5.404;2024-02-15T11:55:23;101452.09;;;12.41;96.14
79453;BME280;68899;52.116;5.404;2024-02-15T11:57:58;101448.50;;;12.42;95.95
79453;BME280;68899;52.116;5.404;2024-02-15T12:00:43;101446.91;;;12.39;95.96
79453;BME280;68899;52.116;5.404;2024-02-15T12:03:28;101446.91;;;12.39;96.03
79453;BME280;68899;52.116;5.404;2024-02-15T12:06:30;101445.13;;;12.40;96.27
79453;BME280;68899;52.116;5.404;2024-02-15T12:09:18;101440.53;;;12.43;96.04
79453;BME280;68899;52.116;5.404;2024-02-15T12:12:05;101437.78;;;12.45;96.20
79453;BME280;68899;52.116;5.404;2024-02-15T12:14:58;101435.16;;;12.45;96.23
79453;BME280;68899;52.116;5.404;2024-02-15T12:17:44;101427.13;;;12.47;95.97
79453;BME280;68899;52.116;5.404;2024-02-15T12:20:29;101428.84;;;12.48;96.16
79453;BME280;68899;52.116;5.404;2024-02-15T12:22:55;101418.28;;;12.48;96.04
79453;BME280;68899;52.116;5.404;2024-02-15T12:25:22;101420.81;;;12.49;96.24
79453;BME280;68899;52.116;5.404;2024-02-15T12:27:59;101414.59;;;12.50;96.21
79453;BME280;68899;52.116;5.404;2024-02-15T12:30:32;101410.94;;;12.53;96.19
79453;BME280;68899;52.116;5.404;2024-02-15T12:33:09;101403.69;;;12.56;96.30
79453;BME280;68899;52.116;5.404;2024-02-15T12:35:37;101389.53;;;12.57;96.10
79453;BME280;68899;52.116;5.404;2024-02-15T12:38:04;101390.13;;;12.62;96.19
79453;BME280;68899;52.116;5.404;2024-02-15T12:40:37;101401.22;;;12.67;96.07
79453;BME280;68899;52.116;5.404;2024-02-15T12:43:09;101391.34;;;12.71;95.74
79453;BME280;68899;52.116;5.404;2024-02-15T12:45:40;101374.56;;;12.72;96.09
79453;BME280;68899;52.116;5.404;2024-02-15T12:48:08;101391.88;;;12.76;96.02
79453;BME280;68899;52.116;5.404;2024-02-15T12:50:35;101384.53;;;12.81;95.94
79453;BME280;68899;52.116;5.404;2024-02-15T12:53:02;101385.13;;;12.86;95.93
79453;BME280;68899;52.116;5.404;2024-02-15T12:55:30;101377.72;;;12.91;95.75
79453;BME280;68899;52.116;5.404;2024-02-15T12:58:13;101377.47;;;12.96;95.81
79453;BME280;68899;52.116;5.404;2024-02-15T13:00:41;101380.63;;;13.01;95.66
79453;BME280;68899;52.116;5.404;2024-02-15T13:03:09;101376.03;;;13.05;95.35
79453;BME280;68899;52.116;5.404;2024-02-15T13:05:40;101369.50;;;13.10;95.22
79453;BME280;68899;52.116;5.404;2024-02-15T13:08:07;101368.38;;;13.14;94.75
79453;BME280;68899;52.116;5.404;2024-02-15T13:10:39;101371.00;;;13.14;95.07